Huvudsida
METAR-TAF:

METAR-TAF

Flygplatser :

Clark's Point, Alaska, USA

latitud: 58-50-01N, longitud: 158-31-46W, höjd: 24 m

Aktuellt väderrapport

Denna rapport gjordes för 1 timme och 4 minuter sedan, klockan 18:56 UTC
Vind 7 kt från väst/sydväst
Temperatur 9°C
Fuktighet 87%
Tryck 1025 hPa
Sikt: 16.1 km
Få moln på en höjd av 200 ft

METAR: PFCL 141856Z AUTO 25007KT 10SM FEW002 09/07 A3027 RMK AO2 SLP243 T00890067 TSNO

Tid: 12:00 (20:00 UTC)


TAF: saknas

Aktuella väderrapporter och prognoser från 4000 flygplatser (METAR- och TAF-rapporter).

De tillgängliga stationerna syns som gula och röda prickar på kartan.

För musen över prickarna för att se namnen på stationerna.

Klicka sedan för att få väderrapporter och prognoser.

För att ändra kartan: Klicka på de gröna knapparna med ett svart kors på för att zooma in; den gröna knappen med ett streck på för att zooma ut; eller på de gröna pilarna för angränsande kartor.


METAR-TAF: